sensor_id;sensor_type;location;lat;lon;timestamp;P1;durP1;ratioP1;P2;durP2;ratioP2
15706;SDS011;7953;54.302;10.128;2023-01-29T00:01:45;30.40;;;16.67;;
15706;SDS011;7953;54.302;10.128;2023-01-29T00:04:14;24.13;;;15.90;;
15706;SDS011;7953;54.302;10.128;2023-01-29T00:06:41;25.77;;;15.00;;
15706;SDS011;7953;54.302;10.128;2023-01-29T00:09:09;30.07;;;16.87;;
15706;SDS011;7953;54.302;10.128;2023-01-29T00:11:36;25.97;;;16.23;;
15706;SDS011;7953;54.302;10.128;2023-01-29T00:14:03;26.33;;;16.20;;
15706;SDS011;7953;54.302;10.128;2023-01-29T00:16:30;31.27;;;17.83;;
15706;SDS011;7953;54.302;10.128;2023-01-29T00:18:57;32.43;;;17.90;;
15706;SDS011;7953;54.302;10.128;2023-01-29T00:21:27;28.90;;;16.73;;
15706;SDS011;7953;54.302;10.128;2023-01-29T00:23:55;34.27;;;17.90;;
15706;SDS011;7953;54.302;10.128;2023-01-29T00:26:22;34.43;;;17.63;;
15706;SDS011;7953;54.302;10.128;2023-01-29T00:28:49;31.57;;;16.97;;
15706;SDS011;7953;54.302;10.128;2023-01-29T00:31:17;29.23;;;16.90;;
15706;SDS011;7953;54.302;10.128;2023-01-29T00:33:45;28.03;;;16.53;;
15706;SDS011;7953;54.302;10.128;2023-01-29T00:36:13;32.73;;;17.77;;
15706;SDS011;7953;54.302;10.128;2023-01-29T00:38:42;32.20;;;16.43;;
15706;SDS011;7953;54.302;10.128;2023-01-29T00:41:10;31.47;;;16.80;;
15706;SDS011;7953;54.302;10.128;2023-01-29T00:43:56;29.03;;;17.23;;
15706;SDS011;7953;54.302;10.128;2023-01-29T00:46:41;28.67;;;16.93;;
15706;SDS011;7953;54.302;10.128;2023-01-29T00:49:08;28.63;;;15.90;;
15706;SDS011;7953;54.302;10.128;2023-01-29T00:51:36;23.00;;;15.47;;
15706;SDS011;7953;54.302;10.128;2023-01-29T00:54:04;22.20;;;14.87;;
15706;SDS011;7953;54.302;10.128;2023-01-29T00:56:32;26.40;;;15.13;;
15706;SDS011;7953;54.302;10.128;2023-01-29T00:59:00;27.40;;;15.50;;
15706;SDS011;7953;54.302;10.128;2023-01-29T01:01:27;28.80;;;14.67;;
15706;SDS011;7953;54.302;10.128;2023-01-29T01:04:12;29.27;;;16.97;;
15706;SDS011;7953;54.302;10.128;2023-01-29T01:06:40;26.93;;;15.07;;
15706;SDS011;7953;54.302;10.128;2023-01-29T01:09:09;31.00;;;15.67;;
15706;SDS011;7953;54.302;10.128;2023-01-29T01:11:53;25.13;;;14.93;;
15706;SDS011;7953;54.302;10.128;2023-01-29T01:14:20;27.40;;;15.73;;
15706;SDS011;7953;54.302;10.128;2023-01-29T01:16:47;21.53;;;14.23;;
15706;SDS011;7953;54.302;10.128;2023-01-29T01:19:14;22.13;;;14.30;;
15706;SDS011;7953;54.302;10.128;2023-01-29T01:21:42;28.53;;;15.67;;
15706;SDS011;7953;54.302;10.128;2023-01-29T01:24:13;24.00;;;13.47;;
15706;SDS011;7953;54.302;10.128;2023-01-29T01:26:40;24.00;;;14.20;;
15706;SDS011;7953;54.302;10.128;2023-01-29T01:29:08;22.30;;;15.27;;
15706;SDS011;7953;54.302;10.128;2023-01-29T01:31:34;23.03;;;14.13;;
15706;SDS011;7953;54.302;10.128;2023-01-29T01:34:02;25.27;;;13.30;;
15706;SDS011;7953;54.302;10.128;2023-01-29T01:36:29;19.10;;;13.03;;
15706;SDS011;7953;54.302;10.128;2023-01-29T01:38:56;19.97;;;14.07;;
15706;SDS011;7953;54.302;10.128;2023-01-29T01:41:24;18.63;;;11.67;;
15706;SDS011;7953;54.302;10.128;2023-01-29T01:43:52;17.53;;;12.60;;
15706;SDS011;7953;54.302;10.128;2023-01-29T01:46:22;17.90;;;11.60;;
15706;SDS011;7953;54.302;10.128;2023-01-29T01:48:50;17.93;;;10.07;;
15706;SDS011;7953;54.302;10.128;2023-01-29T01:51:23;14.37;;;10.20;;
15706;SDS011;7953;54.302;10.128;2023-01-29T01:53:53;17.83;;;10.90;;
15706;SDS011;7953;54.302;10.128;2023-01-29T01:56:28;16.73;;;11.10;;
15706;SDS011;7953;54.302;10.128;2023-01-29T01:59:05;14.77;;;10.77;;
15706;SDS011;7953;54.302;10.128;2023-01-29T02:01:35;16.47;;;10.10;;
15706;SDS011;7953;54.302;10.128;2023-01-29T02:04:06;17.93;;;9.87;;
15706;SDS011;7953;54.302;10.128;2023-01-29T02:06:53;18.33;;;10.50;;
15706;SDS011;7953;54.302;10.128;2023-01-29T02:09:41;19.43;;;10.10;;
15706;SDS011;7953;54.302;10.128;2023-01-29T02:12:13;18.13;;;9.40;;
15706;SDS011;7953;54.302;10.128;2023-01-29T02:14:42;16.33;;;9.00;;
15706;SDS011;7953;54.302;10.128;2023-01-29T02:17:10;20.17;;;11.03;;
15706;SDS011;7953;54.302;10.128;2023-01-29T02:19:41;17.00;;;9.17;;
15706;SDS011;7953;54.302;10.128;2023-01-29T02:25:38;19.20;;;9.50;;
15706;SDS011;7953;54.302;10.128;2023-01-29T02:28:19;20.13;;;10.03;;
15706;SDS011;7953;54.302;10.128;2023-01-29T02:30:58;24.43;;;10.63;;
15706;SDS011;7953;54.302;10.128;2023-01-29T02:33:35;22.50;;;11.50;;
15706;SDS011;7953;54.302;10.128;2023-01-29T02:36:13;23.30;;;10.83;;
15706;SDS011;7953;54.302;10.128;2023-01-29T02:38:55;22.83;;;10.70;;
15706;SDS011;7953;54.302;10.128;2023-01-29T02:41:30;21.27;;;9.90;;
15706;SDS011;7953;54.302;10.128;2023-01-29T02:44:04;26.20;;;12.80;;
15706;SDS011;7953;54.302;10.128;2023-01-29T02:46:44;21.80;;;10.60;;
15706;SDS011;7953;54.302;10.128;2023-01-29T02:49:19;17.53;;;9.20;;
15706;SDS011;7953;54.302;10.128;2023-01-29T02:51:50;19.90;;;9.97;;
15706;SDS011;7953;54.302;10.128;2023-01-29T02:54:28;17.27;;;9.90;;
15706;SDS011;7953;54.302;10.128;2023-01-29T02:57:02;17.10;;;9.87;;
15706;SDS011;7953;54.302;10.128;2023-01-29T02:59:41;19.23;;;9.60;;
15706;SDS011;7953;54.302;10.128;2023-01-29T03:02:12;18.80;;;9.03;;
15706;SDS011;7953;54.302;10.128;2023-01-29T03:04:44;14.47;;;8.47;;
15706;SDS011;7953;54.302;10.128;2023-01-29T03:07:16;15.47;;;8.63;;
15706;SDS011;7953;54.302;10.128;2023-01-29T03:10:01;14.90;;;8.63;;
15706;SDS011;7953;54.302;10.128;2023-01-29T03:12:31;19.27;;;8.90;;
15706;SDS011;7953;54.302;10.128;2023-01-29T03:15:06;17.73;;;9.03;;
15706;SDS011;7953;54.302;10.128;2023-01-29T03:17:41;18.60;;;8.43;;
15706;SDS011;7953;54.302;10.128;2023-01-29T03:20:14;16.53;;;8.40;;
15706;SDS011;7953;54.302;10.128;2023-01-29T03:22:44;14.17;;;9.00;;
15706;SDS011;7953;54.302;10.128;2023-01-29T03:25:16;15.10;;;8.43;;
15706;SDS011;7953;54.302;10.128;2023-01-29T03:28:03;13.30;;;9.23;;
15706;SDS011;7953;54.302;10.128;2023-01-29T03:30:50;12.07;;;8.43;;
15706;SDS011;7953;54.302;10.128;2023-01-29T03:33:38;24.23;;;9.47;;
15706;SDS011;7953;54.302;10.128;2023-01-29T03:36:09;15.97;;;9.47;;
15706;SDS011;7953;54.302;10.128;2023-01-29T03:38:41;17.37;;;9.00;;
15706;SDS011;7953;54.302;10.128;2023-01-29T03:41:09;15.03;;;8.97;;
15706;SDS011;7953;54.302;10.128;2023-01-29T03:43:46;13.43;;;7.63;;
15706;SDS011;7953;54.302;10.128;2023-01-29T03:46:22;16.37;;;8.80;;
15706;SDS011;7953;54.302;10.128;2023-01-29T03:48:57;11.83;;;7.83;;
15706;SDS011;7953;54.302;10.128;2023-01-29T03:51:33;15.47;;;8.20;;
15706;SDS011;7953;54.302;10.128;2023-01-29T03:54:06;13.57;;;8.20;;
15706;SDS011;7953;54.302;10.128;2023-01-29T03:56:43;12.40;;;7.27;;
15706;SDS011;7953;54.302;10.128;2023-01-29T03:59:22;20.73;;;8.53;;
15706;SDS011;7953;54.302;10.128;2023-01-29T04:01:58;12.10;;;7.33;;
15706;SDS011;7953;54.302;10.128;2023-01-29T04:04:28;12.40;;;7.63;;
15706;SDS011;7953;54.302;10.128;2023-01-29T04:06:59;13.77;;;8.60;;
15706;SDS011;7953;54.302;10.128;2023-01-29T04:09:31;11.33;;;8.13;;
15706;SDS011;7953;54.302;10.128;2023-01-29T04:12:04;13.17;;;8.40;;
15706;SDS011;7953;54.302;10.128;2023-01-29T04:14:35;11.37;;;7.90;;
15706;SDS011;7953;54.302;10.128;2023-01-29T04:17:05;16.47;;;8.10;;
15706;SDS011;7953;54.302;10.128;2023-01-29T04:19:36;13.87;;;7.53;;
15706;SDS011;7953;54.302;10.128;2023-01-29T04:22:05;14.00;;;7.77;;
15706;SDS011;7953;54.302;10.128;2023-01-29T04:24:36;17.67;;;8.47;;
15706;SDS011;7953;54.302;10.128;2023-01-29T04:27:06;11.67;;;8.37;;
15706;SDS011;7953;54.302;10.128;2023-01-29T04:29:49;13.47;;;7.43;;
15706;SDS011;7953;54.302;10.128;2023-01-29T04:32:25;13.57;;;7.90;;
15706;SDS011;7953;54.302;10.128;2023-01-29T04:35:02;19.00;;;8.73;;
15706;SDS011;7953;54.302;10.128;2023-01-29T04:37:39;15.60;;;9.10;;
15706;SDS011;7953;54.302;10.128;2023-01-29T04:40:14;16.80;;;9.50;;
15706;SDS011;7953;54.302;10.128;2023-01-29T04:42:47;15.57;;;9.77;;
15706;SDS011;7953;54.302;10.128;2023-01-29T04:45:22;13.17;;;10.10;;
15706;SDS011;7953;54.302;10.128;2023-01-29T04:47:56;19.33;;;11.13;;
15706;SDS011;7953;54.302;10.128;2023-01-29T04:50:32;18.43;;;10.63;;
15706;SDS011;7953;54.302;10.128;2023-01-29T04:53:03;21.53;;;10.93;;
15706;SDS011;7953;54.302;10.128;2023-01-29T04:55:39;23.23;;;11.10;;
15706;SDS011;7953;54.302;10.128;2023-01-29T04:58:10;19.80;;;10.80;;
15706;SDS011;7953;54.302;10.128;2023-01-29T05:00:41;25.07;;;12.00;;
15706;SDS011;7953;54.302;10.128;2023-01-29T05:03:11;19.40;;;12.27;;
15706;SDS011;7953;54.302;10.128;2023-01-29T05:05:40;22.23;;;12.10;;
15706;SDS011;7953;54.302;10.128;2023-01-29T05:08:11;24.10;;;10.40;;
15706;SDS011;7953;54.302;10.128;2023-01-29T05:10:41;19.77;;;10.90;;
15706;SDS011;7953;54.302;10.128;2023-01-29T05:13:09;18.07;;;10.70;;
15706;SDS011;7953;54.302;10.128;2023-01-29T05:15:39;16.50;;;11.47;;
15706;SDS011;7953;54.302;10.128;2023-01-29T05:18:10;21.13;;;13.13;;
15706;SDS011;7953;54.302;10.128;2023-01-29T05:20:38;19.50;;;11.27;;
15706;SDS011;7953;54.302;10.128;2023-01-29T05:23:08;19.53;;;11.67;;
15706;SDS011;7953;54.302;10.128;2023-01-29T05:25:36;22.63;;;12.10;;
15706;SDS011;7953;54.302;10.128;2023-01-29T05:28:03;19.33;;;11.00;;
15706;SDS011;7953;54.302;10.128;2023-01-29T05:30:29;16.60;;;11.13;;
15706;SDS011;7953;54.302;10.128;2023-01-29T05:32:57;25.83;;;12.17;;
15706;SDS011;7953;54.302;10.128;2023-01-29T05:35:25;17.63;;;12.17;;
15706;SDS011;7953;54.302;10.128;2023-01-29T05:37:52;21.40;;;12.60;;
15706;SDS011;7953;54.302;10.128;2023-01-29T05:40:20;21.70;;;12.27;;
15706;SDS011;7953;54.302;10.128;2023-01-29T05:42:47;20.13;;;12.37;;
15706;SDS011;7953;54.302;10.128;2023-01-29T05:45:15;16.80;;;11.57;;
15706;SDS011;7953;54.302;10.128;2023-01-29T05:47:42;15.47;;;11.30;;
15706;SDS011;7953;54.302;10.128;2023-01-29T05:50:09;17.67;;;11.70;;
15706;SDS011;7953;54.302;10.128;2023-01-29T05:52:39;14.57;;;10.40;;
15706;SDS011;7953;54.302;10.128;2023-01-29T05:55:07;16.77;;;11.23;;
15706;SDS011;7953;54.302;10.128;2023-01-29T05:57:35;18.03;;;10.87;;
15706;SDS011;7953;54.302;10.128;2023-01-29T06:00:03;13.17;;;9.37;;
15706;SDS011;7953;54.302;10.128;2023-01-29T06:02:30;14.20;;;8.97;;
15706;SDS011;7953;54.302;10.128;2023-01-29T06:04:57;10.97;;;8.40;;
15706;SDS011;7953;54.302;10.128;2023-01-29T06:07:24;13.57;;;8.43;;
15706;SDS011;7953;54.302;10.128;2023-01-29T06:09:53;13.77;;;8.40;;
15706;SDS011;7953;54.302;10.128;2023-01-29T06:12:19;11.63;;;8.60;;
15706;SDS011;7953;54.302;10.128;2023-01-29T06:14:47;11.03;;;8.63;;
15706;SDS011;7953;54.302;10.128;2023-01-29T06:17:14;39.07;;;23.40;;
15706;SDS011;7953;54.302;10.128;2023-01-29T06:19:41;13.60;;;9.23;;
15706;SDS011;7953;54.302;10.128;2023-01-29T06:22:08;11.53;;;8.97;;
15706;SDS011;7953;54.302;10.128;2023-01-29T06:24:34;10.67;;;7.47;;
15706;SDS011;7953;54.302;10.128;2023-01-29T06:27:03;8.20;;;6.63;;
15706;SDS011;7953;54.302;10.128;2023-01-29T06:29:30;7.10;;;5.63;;
15706;SDS011;7953;54.302;10.128;2023-01-29T06:32:00;6.67;;;5.40;;
15706;SDS011;7953;54.302;10.128;2023-01-29T06:34:27;6.97;;;5.47;;
15706;SDS011;7953;54.302;10.128;2023-01-29T06:36:54;8.47;;;5.53;;
15706;SDS011;7953;54.302;10.128;2023-01-29T06:39:21;7.07;;;4.57;;
15706;SDS011;7953;54.302;10.128;2023-01-29T06:41:48;6.23;;;5.00;;
15706;SDS011;7953;54.302;10.128;2023-01-29T06:44:16;5.27;;;4.40;;
15706;SDS011;7953;54.302;10.128;2023-01-29T06:46:43;6.13;;;5.07;;
15706;SDS011;7953;54.302;10.128;2023-01-29T06:49:10;7.30;;;5.50;;
15706;SDS011;7953;54.302;10.128;2023-01-29T06:51:36;6.47;;;4.43;;
15706;SDS011;7953;54.302;10.128;2023-01-29T06:54:04;6.57;;;4.37;;
15706;SDS011;7953;54.302;10.128;2023-01-29T06:56:32;10.23;;;4.50;;
15706;SDS011;7953;54.302;10.128;2023-01-29T06:58:59;7.37;;;3.90;;
15706;SDS011;7953;54.302;10.128;2023-01-29T07:01:27;8.20;;;4.00;;
15706;SDS011;7953;54.302;10.128;2023-01-29T07:03:54;6.70;;;3.67;;
15706;SDS011;7953;54.302;10.128;2023-01-29T07:06:25;6.70;;;3.37;;
15706;SDS011;7953;54.302;10.128;2023-01-29T07:08:52;5.40;;;3.63;;
15706;SDS011;7953;54.302;10.128;2023-01-29T07:11:19;7.53;;;5.37;;
15706;SDS011;7953;54.302;10.128;2023-01-29T07:13:46;10.60;;;5.97;;
15706;SDS011;7953;54.302;10.128;2023-01-29T07:16:13;11.10;;;7.13;;
15706;SDS011;7953;54.302;10.128;2023-01-29T07:18:41;8.63;;;7.37;;
15706;SDS011;7953;54.302;10.128;2023-01-29T07:21:08;10.03;;;8.10;;
15706;SDS011;7953;54.302;10.128;2023-01-29T07:23:35;12.60;;;8.70;;
15706;SDS011;7953;54.302;10.128;2023-01-29T07:26:02;11.43;;;8.90;;
15706;SDS011;7953;54.302;10.128;2023-01-29T07:28:30;13.20;;;9.30;;
15706;SDS011;7953;54.302;10.128;2023-01-29T07:31:00;14.33;;;9.77;;
15706;SDS011;7953;54.302;10.128;2023-01-29T07:33:27;16.10;;;9.40;;
15706;SDS011;7953;54.302;10.128;2023-01-29T07:35:56;10.30;;;7.47;;
15706;SDS011;7953;54.302;10.128;2023-01-29T07:38:23;11.77;;;8.50;;
15706;SDS011;7953;54.302;10.128;2023-01-29T07:40:50;13.97;;;8.47;;
15706;SDS011;7953;54.302;10.128;2023-01-29T07:43:17;20.37;;;10.63;;
15706;SDS011;7953;54.302;10.128;2023-01-29T07:45:44;14.47;;;9.63;;
15706;SDS011;7953;54.302;10.128;2023-01-29T07:48:11;13.00;;;10.03;;
15706;SDS011;7953;54.302;10.128;2023-01-29T07:50:38;13.03;;;8.57;;
15706;SDS011;7953;54.302;10.128;2023-01-29T07:53:08;13.83;;;7.63;;
15706;SDS011;7953;54.302;10.128;2023-01-29T07:55:38;12.50;;;8.40;;
15706;SDS011;7953;54.302;10.128;2023-01-29T07:58:05;12.03;;;8.43;;
15706;SDS011;7953;54.302;10.128;2023-01-29T08:00:32;12.13;;;8.23;;
15706;SDS011;7953;54.302;10.128;2023-01-29T08:03:02;15.83;;;8.80;;
15706;SDS011;7953;54.302;10.128;2023-01-29T08:05:30;14.00;;;8.93;;
15706;SDS011;7953;54.302;10.128;2023-01-29T08:07:57;14.13;;;9.87;;
15706;SDS011;7953;54.302;10.128;2023-01-29T08:10:26;14.07;;;8.80;;
15706;SDS011;7953;54.302;10.128;2023-01-29T08:12:53;12.50;;;8.93;;
15706;SDS011;7953;54.302;10.128;2023-01-29T08:15:21;13.77;;;9.77;;
15706;SDS011;7953;54.302;10.128;2023-01-29T08:17:48;15.37;;;10.77;;
15706;SDS011;7953;54.302;10.128;2023-01-29T08:20:16;13.20;;;9.23;;
15706;SDS011;7953;54.302;10.128;2023-01-29T08:22:43;16.60;;;13.40;;
15706;SDS011;7953;54.302;10.128;2023-01-29T08:25:10;12.93;;;8.73;;
15706;SDS011;7953;54.302;10.128;2023-01-29T08:27:39;17.13;;;10.60;;
15706;SDS011;7953;54.302;10.128;2023-01-29T08:30:06;14.17;;;10.20;;
15706;SDS011;7953;54.302;10.128;2023-01-29T08:32:35;11.30;;;9.87;;
15706;SDS011;7953;54.302;10.128;2023-01-29T08:35:02;10.50;;;7.70;;
15706;SDS011;7953;54.302;10.128;2023-01-29T08:37:29;10.30;;;7.70;;
15706;SDS011;7953;54.302;10.128;2023-01-29T08:39:56;12.10;;;8.63;;
15706;SDS011;7953;54.302;10.128;2023-01-29T08:42:22;9.83;;;7.33;;
15706;SDS011;7953;54.302;10.128;2023-01-29T08:44:51;13.27;;;9.43;;
15706;SDS011;7953;54.302;10.128;2023-01-29T08:47:18;10.50;;;8.67;;
15706;SDS011;7953;54.302;10.128;2023-01-29T08:49:45;14.90;;;8.83;;
15706;SDS011;7953;54.302;10.128;2023-01-29T08:52:12;12.23;;;8.50;;
15706;SDS011;7953;54.302;10.128;2023-01-29T08:54:39;12.33;;;9.30;;
15706;SDS011;7953;54.302;10.128;2023-01-29T08:57:06;15.23;;;10.30;;
15706;SDS011;7953;54.302;10.128;2023-01-29T08:59:33;13.30;;;9.17;;
15706;SDS011;7953;54.302;10.128;2023-01-29T09:02:01;12.97;;;9.73;;
15706;SDS011;7953;54.302;10.128;2023-01-29T09:04:28;13.17;;;8.43;;
15706;SDS011;7953;54.302;10.128;2023-01-29T09:06:55;12.23;;;8.10;;
15706;SDS011;7953;54.302;10.128;2023-01-29T09:09:22;13.23;;;8.70;;
15706;SDS011;7953;54.302;10.128;2023-01-29T09:11:49;12.00;;;8.13;;
15706;SDS011;7953;54.302;10.128;2023-01-29T09:14:15;9.70;;;7.87;;
15706;SDS011;7953;54.302;10.128;2023-01-29T09:16:42;10.47;;;7.13;;
15706;SDS011;7953;54.302;10.128;2023-01-29T09:19:11;8.83;;;7.70;;
15706;SDS011;7953;54.302;10.128;2023-01-29T09:21:38;9.77;;;8.20;;
15706;SDS011;7953;54.302;10.128;2023-01-29T09:24:05;9.80;;;7.40;;
15706;SDS011;7953;54.302;10.128;2023-01-29T09:26:32;11.83;;;9.20;;
15706;SDS011;7953;54.302;10.128;2023-01-29T09:28:59;17.67;;;10.63;;
15706;SDS011;7953;54.302;10.128;2023-01-29T09:31:26;21.33;;;16.10;;
15706;SDS011;7953;54.302;10.128;2023-01-29T09:33:52;15.77;;;10.77;;
15706;SDS011;7953;54.302;10.128;2023-01-29T09:36:21;12.57;;;10.03;;
15706;SDS011;7953;54.302;10.128;2023-01-29T09:38:48;14.77;;;10.80;;
15706;SDS011;7953;54.302;10.128;2023-01-29T09:41:18;15.50;;;11.80;;
15706;SDS011;7953;54.302;10.128;2023-01-29T09:43:55;18.77;;;13.53;;
15706;SDS011;7953;54.302;10.128;2023-01-29T09:46:27;18.67;;;12.13;;
15706;SDS011;7953;54.302;10.128;2023-01-29T09:49:00;17.73;;;13.97;;
15706;SDS011;7953;54.302;10.128;2023-01-29T09:51:34;13.70;;;10.63;;
15706;SDS011;7953;54.302;10.128;2023-01-29T09:54:11;15.73;;;10.90;;
15706;SDS011;7953;54.302;10.128;2023-01-29T09:56:43;16.10;;;9.53;;
15706;SDS011;7953;54.302;10.128;2023-01-29T09:59:12;12.03;;;10.43;;
15706;SDS011;7953;54.302;10.128;2023-01-29T10:01:45;15.50;;;9.70;;
15706;SDS011;7953;54.302;10.128;2023-01-29T10:10:25;18.43;;;13.13;;
15706;SDS011;7953;54.302;10.128;2023-01-29T10:13:02;16.37;;;11.10;;
15706;SDS011;7953;54.302;10.128;2023-01-29T10:15:40;14.00;;;9.03;;
15706;SDS011;7953;54.302;10.128;2023-01-29T10:18:25;14.23;;;11.40;;
15706;SDS011;7953;54.302;10.128;2023-01-29T10:21:07;13.70;;;9.13;;
15706;SDS011;7953;54.302;10.128;2023-01-29T10:23:46;12.97;;;9.37;;
15706;SDS011;7953;54.302;10.128;2023-01-29T10:26:16;13.10;;;9.73;;
15706;SDS011;7953;54.302;10.128;2023-01-29T10:28:46;13.43;;;9.50;;
15706;SDS011;7953;54.302;10.128;2023-01-29T10:31:16;14.17;;;9.53;;
15706;SDS011;7953;54.302;10.128;2023-01-29T10:33:47;12.37;;;8.50;;
15706;SDS011;7953;54.302;10.128;2023-01-29T10:36:18;10.87;;;8.10;;
15706;SDS011;7953;54.302;10.128;2023-01-29T10:38:50;9.87;;;7.43;;
15706;SDS011;7953;54.302;10.128;2023-01-29T10:44:13;10.57;;;8.03;;
15706;SDS011;7953;54.302;10.128;2023-01-29T10:46:50;11.00;;;7.77;;
15706;SDS011;7953;54.302;10.128;2023-01-29T10:49:33;12.73;;;9.50;;
15706;SDS011;7953;54.302;10.128;2023-01-29T10:52:20;13.03;;;9.20;;
15706;SDS011;7953;54.302;10.128;2023-01-29T10:55:01;15.17;;;9.73;;
15706;SDS011;7953;54.302;10.128;2023-01-29T10:57:38;13.37;;;9.33;;
15706;SDS011;7953;54.302;10.128;2023-01-29T11:00:17;14.53;;;10.57;;
15706;SDS011;7953;54.302;10.128;2023-01-29T11:02:48;12.20;;;9.13;;
15706;SDS011;7953;54.302;10.128;2023-01-29T11:05:18;13.57;;;10.07;;
15706;SDS011;7953;54.302;10.128;2023-01-29T11:07:51;14.00;;;9.27;;
15706;SDS011;7953;54.302;10.128;2023-01-29T11:10:29;12.60;;;9.90;;
15706;SDS011;7953;54.302;10.128;2023-01-29T11:13:01;17.60;;;10.00;;
15706;SDS011;7953;54.302;10.128;2023-01-29T11:15:29;16.87;;;10.27;;
15706;SDS011;7953;54.302;10.128;2023-01-29T11:18:05;15.23;;;10.03;;
15706;SDS011;7953;54.302;10.128;2023-01-29T11:20:37;19.37;;;11.20;;
15706;SDS011;7953;54.302;10.128;2023-01-29T11:23:05;14.70;;;10.57;;
15706;SDS011;7953;54.302;10.128;2023-01-29T11:25:52;15.07;;;10.47;;
15706;SDS011;7953;54.302;10.128;2023-01-29T11:28:36;14.03;;;9.07;;
15706;SDS011;7953;54.302;10.128;2023-01-29T11:31:14;14.40;;;9.73;;
15706;SDS011;7953;54.302;10.128;2023-01-29T11:33:49;15.27;;;10.03;;
15706;SDS011;7953;54.302;10.128;2023-01-29T11:36:26;16.60;;;9.87;;
15706;SDS011;7953;54.302;10.128;2023-01-29T11:39:10;12.80;;;8.20;;
15706;SDS011;7953;54.302;10.128;2023-01-29T11:41:46;12.93;;;8.93;;
15706;SDS011;7953;54.302;10.128;2023-01-29T11:44:18;12.70;;;9.23;;
15706;SDS011;7953;54.302;10.128;2023-01-29T11:46:47;16.40;;;11.27;;
15706;SDS011;7953;54.302;10.128;2023-01-29T11:49:20;14.87;;;8.80;;
15706;SDS011;7953;54.302;10.128;2023-01-29T11:51:58;12.40;;;8.53;;
15706;SDS011;7953;54.302;10.128;2023-01-29T11:54:28;10.73;;;8.53;;
15706;SDS011;7953;54.302;10.128;2023-01-29T11:57:00;11.97;;;8.33;;
15706;SDS011;7953;54.302;10.128;2023-01-29T11:59:31;15.23;;;10.97;;
15706;SDS011;7953;54.302;10.128;2023-01-29T12:02:14;11.30;;;8.63;;
15706;SDS011;7953;54.302;10.128;2023-01-29T12:04:50;12.67;;;8.50;;
15706;SDS011;7953;54.302;10.128;2023-01-29T12:07:19;10.67;;;8.53;;
15706;SDS011;7953;54.302;10.128;2023-01-29T12:09:51;11.87;;;8.23;;
15706;SDS011;7953;54.302;10.128;2023-01-29T12:12:27;13.83;;;9.20;;
15706;SDS011;7953;54.302;10.128;2023-01-29T12:15:20;13.50;;;9.30;;
15706;SDS011;7953;54.302;10.128;2023-01-29T12:18:00;15.10;;;10.10;;
15706;SDS011;7953;54.302;10.128;2023-01-29T12:20:33;13.37;;;10.00;;
15706;SDS011;7953;54.302;10.128;2023-01-29T12:23:08;15.10;;;10.47;;
15706;SDS011;7953;54.302;10.128;2023-01-29T12:25:47;17.07;;;11.87;;
15706;SDS011;7953;54.302;10.128;2023-01-29T12:28:30;14.40;;;9.63;;
15706;SDS011;7953;54.302;10.128;2023-01-29T12:31:07;16.30;;;10.40;;
15706;SDS011;7953;54.302;10.128;2023-01-29T12:33:51;12.27;;;8.80;;
15706;SDS011;7953;54.302;10.128;2023-01-29T12:36:25;15.13;;;10.03;;
15706;SDS011;7953;54.302;10.128;2023-01-29T12:38:56;15.93;;;10.00;;
15706;SDS011;7953;54.302;10.128;2023-01-29T12:41:27;15.00;;;9.97;;
15706;SDS011;7953;54.302;10.128;2023-01-29T12:44:02;19.47;;;12.57;;
15706;SDS011;7953;54.302;10.128;2023-01-29T12:46:36;16.17;;;10.93;;
15706;SDS011;7953;54.302;10.128;2023-01-29T12:49:10;16.07;;;12.13;;
15706;SDS011;7953;54.302;10.128;2023-01-29T12:51:42;18.13;;;12.97;;
15706;SDS011;7953;54.302;10.128;2023-01-29T12:54:16;23.70;;;14.43;;
15706;SDS011;7953;54.302;10.128;2023-01-29T12:56:48;22.80;;;13.77;;
15706;SDS011;7953;54.302;10.128;2023-01-29T12:59:23;26.23;;;14.70;;
15706;SDS011;7953;54.302;10.128;2023-01-29T13:01:55;22.07;;;13.47;;
15706;SDS011;7953;54.302;10.128;2023-01-29T13:04:29;19.03;;;12.77;;
15706;SDS011;7953;54.302;10.128;2023-01-29T13:07:02;18.43;;;14.33;;
15706;SDS011;7953;54.302;10.128;2023-01-29T13:09:35;21.53;;;14.43;;
15706;SDS011;7953;54.302;10.128;2023-01-29T13:12:07;18.90;;;13.27;;
15706;SDS011;7953;54.302;10.128;2023-01-29T13:14:41;17.93;;;13.70;;
15706;SDS011;7953;54.302;10.128;2023-01-29T13:17:12;21.17;;;13.43;;
15706;SDS011;7953;54.302;10.128;2023-01-29T13:19:45;17.67;;;12.83;;
15706;SDS011;7953;54.302;10.128;2023-01-29T13:22:17;14.70;;;10.53;;
15706;SDS011;7953;54.302;10.128;2023-01-29T13:24:47;15.87;;;11.50;;
15706;SDS011;7953;54.302;10.128;2023-01-29T13:27:19;16.70;;;11.77;;
15706;SDS011;7953;54.302;10.128;2023-01-29T13:29:50;13.93;;;10.70;;
15706;SDS011;7953;54.302;10.128;2023-01-29T13:32:22;18.03;;;13.03;;
15706;SDS011;7953;54.302;10.128;2023-01-29T13:34:53;17.00;;;12.63;;
15706;SDS011;7953;54.302;10.128;2023-01-29T13:37:29;17.83;;;12.00;;
15706;SDS011;7953;54.302;10.128;2023-01-29T13:39:58;19.23;;;12.43;;
15706;SDS011;7953;54.302;10.128;2023-01-29T13:42:33;17.47;;;12.20;;
15706;SDS011;7953;54.302;10.128;2023-01-29T13:45:06;16.53;;;11.33;;
15706;SDS011;7953;54.302;10.128;2023-01-29T13:47:35;13.60;;;11.67;;
15706;SDS011;7953;54.302;10.128;2023-01-29T13:50:04;16.30;;;12.63;;
15706;SDS011;7953;54.302;10.128;2023-01-29T13:52:34;17.53;;;12.13;;
15706;SDS011;7953;54.302;10.128;2023-01-29T13:55:04;16.40;;;12.10;;
15706;SDS011;7953;54.302;10.128;2023-01-29T13:57:35;16.67;;;12.23;;
15706;SDS011;7953;54.302;10.128;2023-01-29T14:06:34;18.00;;;12.77;;
15706;SDS011;7953;54.302;10.128;2023-01-29T14:12:32;18.57;;;13.07;;
15706;SDS011;7953;54.302;10.128;2023-01-29T14:15:04;16.47;;;12.27;;
15706;SDS011;7953;54.302;10.128;2023-01-29T14:17:55;17.43;;;12.40;;
15706;SDS011;7953;54.302;10.128;2023-01-29T14:20:41;18.87;;;13.90;;
15706;SDS011;7953;54.302;10.128;2023-01-29T14:23:21;20.63;;;14.43;;
15706;SDS011;7953;54.302;10.128;2023-01-29T14:26:01;21.80;;;14.17;;
15706;SDS011;7953;54.302;10.128;2023-01-29T14:28:30;18.27;;;12.97;;
15706;SDS011;7953;54.302;10.128;2023-01-29T14:30:58;20.57;;;14.57;;
15706;SDS011;7953;54.302;10.128;2023-01-29T14:33:26;19.90;;;14.53;;
15706;SDS011;7953;54.302;10.128;2023-01-29T14:36:02;19.83;;;13.97;;
15706;SDS011;7953;54.302;10.128;2023-01-29T14:38:31;18.93;;;13.40;;
15706;SDS011;7953;54.302;10.128;2023-01-29T14:41:13;19.10;;;13.07;;
15706;SDS011;7953;54.302;10.128;2023-01-29T14:43:46;16.97;;;12.30;;
15706;SDS011;7953;54.302;10.128;2023-01-29T14:49:08;15.80;;;11.40;;
15706;SDS011;7953;54.302;10.128;2023-01-29T14:51:37;16.37;;;12.77;;
15706;SDS011;7953;54.302;10.128;2023-01-29T14:54:14;17.10;;;12.83;;
15706;SDS011;7953;54.302;10.128;2023-01-29T14:56:50;17.67;;;12.50;;
15706;SDS011;7953;54.302;10.128;2023-01-29T14:59:25;17.67;;;13.60;;
15706;SDS011;7953;54.302;10.128;2023-01-29T15:01:56;17.53;;;13.17;;
15706;SDS011;7953;54.302;10.128;2023-01-29T15:04:27;20.70;;;14.43;;
15706;SDS011;7953;54.302;10.128;2023-01-29T15:07:00;17.17;;;11.63;;
15706;SDS011;7953;54.302;10.128;2023-01-29T15:09:33;20.57;;;14.97;;
15706;SDS011;7953;54.302;10.128;2023-01-29T15:12:07;20.83;;;13.57;;
15706;SDS011;7953;54.302;10.128;2023-01-29T15:14:49;20.20;;;13.80;;
15706;SDS011;7953;54.302;10.128;2023-01-29T15:17:25;17.53;;;13.53;;
15706;SDS011;7953;54.302;10.128;2023-01-29T15:19:54;15.83;;;12.67;;